Terminal Aerodrome Forecast
Issued by NWS

Home | Current Version | Previous Version | Text Only | Print | Product List | Glossary On
Versions: 1 2 3 4 5 6 7 8 9 10 11 12 13 14 15 16 17 18 19 20
000
FTUS45 KRIW 242325
TAFBPI
TAF
KBPI 242325Z 2500/2524 VRB06KT P6SM -SN SCT020 OVC040
      TEMPO 2500/2504 4SM -SN BR BKN030
     FM250900 VRB05KT P6SM VCSH SCT030 BKN050
     FM251400 VRB04KT P6SM VCFG SCT030 SCT050
     FM251700 VRB06KT P6SM SCT050
     FM252000 30008KT P6SM FEW050=

USA.gov is the U.S. government's official web portal to all federal, state and local government web resources and services.